sensor_id;sensor_type;location;lat;lon;timestamp;temperature;humidity
14283;DHT22;72649;59.274;18.450;2023-10-09T00:01:44;4.70;99.90
14283;DHT22;72649;59.274;18.450;2023-10-09T00:04:13;4.70;99.90
14283;DHT22;72649;59.274;18.450;2023-10-09T00:06:41;4.70;99.90
14283;DHT22;72649;59.274;18.450;2023-10-09T00:09:10;4.70;99.90
14283;DHT22;72649;59.274;18.450;2023-10-09T00:11:46;4.70;99.90
14283;DHT22;72649;59.274;18.450;2023-10-09T00:14:14;4.70;99.90
14283;DHT22;72649;59.274;18.450;2023-10-09T00:16:45;4.60;99.90
14283;DHT22;72649;59.274;18.450;2023-10-09T00:19:16;4.60;99.90
14283;DHT22;72649;59.274;18.450;2023-10-09T00:21:46;4.60;99.90
14283;DHT22;72649;59.274;18.450;2023-10-09T00:24:14;4.70;99.90
14283;DHT22;72649;59.274;18.450;2023-10-09T00:26:46;4.70;99.90
14283;DHT22;72649;59.274;18.450;2023-10-09T00:29:14;4.70;99.90
14283;DHT22;72649;59.274;18.450;2023-10-09T00:31:53;4.80;99.90
14283;DHT22;72649;59.274;18.450;2023-10-09T00:34:39;4.80;99.90
14283;DHT22;72649;59.274;18.450;2023-10-09T00:37:08;4.80;99.90
14283;DHT22;72649;59.274;18.450;2023-10-09T00:39:49;4.80;99.90
14283;DHT22;72649;59.274;18.450;2023-10-09T00:42:26;4.80;99.90
14283;DHT22;72649;59.274;18.450;2023-10-09T00:44:57;4.80;99.90
14283;DHT22;72649;59.274;18.450;2023-10-09T00:47:31;4.80;99.90
14283;DHT22;72649;59.274;18.450;2023-10-09T00:50:08;4.80;99.90
14283;DHT22;72649;59.274;18.450;2023-10-09T00:52:44;4.80;99.90
14283;DHT22;72649;59.274;18.450;2023-10-09T00:55:19;4.80;99.90
14283;DHT22;72649;59.274;18.450;2023-10-09T00:58:15;4.80;99.90
14283;DHT22;72649;59.274;18.450;2023-10-09T01:00:50;4.80;99.90
14283;DHT22;72649;59.274;18.450;2023-10-09T01:03:21;4.80;99.90
14283;DHT22;72649;59.274;18.450;2023-10-09T01:05:56;4.90;99.90
14283;DHT22;72649;59.274;18.450;2023-10-09T01:08:52;4.80;99.90
14283;DHT22;72649;59.274;18.450;2023-10-09T01:11:34;4.80;99.90
14283;DHT22;72649;59.274;18.450;2023-10-09T01:14:04;4.70;99.90
14283;DHT22;72649;59.274;18.450;2023-10-09T01:16:37;4.70;99.90
14283;DHT22;72649;59.274;18.450;2023-10-09T01:19:04;4.70;99.90
14283;DHT22;72649;59.274;18.450;2023-10-09T01:21:39;4.80;99.90
14283;DHT22;72649;59.274;18.450;2023-10-09T01:24:06;4.80;99.90
14283;DHT22;72649;59.274;18.450;2023-10-09T01:29:21;4.70;99.90
14283;DHT22;72649;59.274;18.450;2023-10-09T01:34:19;4.60;99.90
14283;DHT22;72649;59.274;18.450;2023-10-09T01:36:51;4.60;99.90
14283;DHT22;72649;59.274;18.450;2023-10-09T01:39:22;4.60;99.90
14283;DHT22;72649;59.274;18.450;2023-10-09T01:41:51;4.60;99.90
14283;DHT22;72649;59.274;18.450;2023-10-09T01:44:33;4.50;99.90
14283;DHT22;72649;59.274;18.450;2023-10-09T01:47:11;4.40;99.90
14283;DHT22;72649;59.274;18.450;2023-10-09T01:49:41;4.40;99.90
14283;DHT22;72649;59.274;18.450;2023-10-09T01:52:11;4.40;99.90
14283;DHT22;72649;59.274;18.450;2023-10-09T01:54:46;4.30;99.90
14283;DHT22;72649;59.274;18.450;2023-10-09T01:57:19;4.30;99.90
14283;DHT22;72649;59.274;18.450;2023-10-09T01:59:51;4.20;99.90
14283;DHT22;72649;59.274;18.450;2023-10-09T02:02:21;4.20;99.90
14283;DHT22;72649;59.274;18.450;2023-10-09T02:04:48;4.10;99.90
14283;DHT22;72649;59.274;18.450;2023-10-09T02:07:15;4.10;99.90
14283;DHT22;72649;59.274;18.450;2023-10-09T02:09:48;4.10;99.90
14283;DHT22;72649;59.274;18.450;2023-10-09T02:12:15;4.10;99.90
14283;DHT22;72649;59.274;18.450;2023-10-09T02:14:42;4.10;99.90
14283;DHT22;72649;59.274;18.450;2023-10-09T02:17:10;4.10;99.90
14283;DHT22;72649;59.274;18.450;2023-10-09T02:19:55;4.00;99.90
14283;DHT22;72649;59.274;18.450;2023-10-09T02:22:22;4.00;99.90
14283;DHT22;72649;59.274;18.450;2023-10-09T02:24:52;4.00;99.90
14283;DHT22;72649;59.274;18.450;2023-10-09T02:27:25;4.00;99.90
14283;DHT22;72649;59.274;18.450;2023-10-09T02:30:11;4.00;99.90
14283;DHT22;72649;59.274;18.450;2023-10-09T02:32:58;4.00;99.90
14283;DHT22;72649;59.274;18.450;2023-10-09T02:35:36;4.00;99.90
14283;DHT22;72649;59.274;18.450;2023-10-09T02:38:09;3.90;99.90
14283;DHT22;72649;59.274;18.450;2023-10-09T02:40:41;3.90;99.90
14283;DHT22;72649;59.274;18.450;2023-10-09T02:43:28;3.90;99.90
14283;DHT22;72649;59.274;18.450;2023-10-09T02:46:01;4.00;99.90
14283;DHT22;72649;59.274;18.450;2023-10-09T02:48:40;3.90;99.90
14283;DHT22;72649;59.274;18.450;2023-10-09T02:51:12;3.90;99.90
14283;DHT22;72649;59.274;18.450;2023-10-09T02:53:48;4.00;99.90
14283;DHT22;72649;59.274;18.450;2023-10-09T02:56:16;4.00;99.90
14283;DHT22;72649;59.274;18.450;2023-10-09T02:58:54;3.90;99.90
14283;DHT22;72649;59.274;18.450;2023-10-09T03:01:22;3.90;99.90
14283;DHT22;72649;59.274;18.450;2023-10-09T03:03:49;3.90;99.90
14283;DHT22;72649;59.274;18.450;2023-10-09T03:06:16;3.90;99.90
14283;DHT22;72649;59.274;18.450;2023-10-09T03:08:52;3.80;99.90
14283;DHT22;72649;59.274;18.450;2023-10-09T03:11:21;3.80;99.90
14283;DHT22;72649;59.274;18.450;2023-10-09T03:13:50;3.80;99.90
14283;DHT22;72649;59.274;18.450;2023-10-09T03:16:17;3.80;99.90
14283;DHT22;72649;59.274;18.450;2023-10-09T03:18:52;3.70;99.90
14283;DHT22;72649;59.274;18.450;2023-10-09T03:21:19;3.70;99.90
14283;DHT22;72649;59.274;18.450;2023-10-09T03:23:48;3.70;99.90
14283;DHT22;72649;59.274;18.450;2023-10-09T03:26:18;3.70;99.90
14283;DHT22;72649;59.274;18.450;2023-10-09T03:28:48;3.70;99.90
14283;DHT22;72649;59.274;18.450;2023-10-09T03:31:16;3.70;99.90
14283;DHT22;72649;59.274;18.450;2023-10-09T03:33:42;3.70;99.90
14283;DHT22;72649;59.274;18.450;2023-10-09T03:36:09;3.60;99.90
14283;DHT22;72649;59.274;18.450;2023-10-09T03:38:40;3.60;99.90
14283;DHT22;72649;59.274;18.450;2023-10-09T03:41:07;3.60;99.90
14283;DHT22;72649;59.274;18.450;2023-10-09T03:43:36;3.50;99.90
14283;DHT22;72649;59.274;18.450;2023-10-09T03:46:10;3.50;99.90
14283;DHT22;72649;59.274;18.450;2023-10-09T03:48:50;3.50;99.90
14283;DHT22;72649;59.274;18.450;2023-10-09T03:51:23;3.50;99.90
14283;DHT22;72649;59.274;18.450;2023-10-09T03:53:51;3.50;99.90
14283;DHT22;72649;59.274;18.450;2023-10-09T03:56:21;3.50;99.90
14283;DHT22;72649;59.274;18.450;2023-10-09T03:58:49;3.50;99.90
14283;DHT22;72649;59.274;18.450;2023-10-09T04:01:18;3.40;99.90
14283;DHT22;72649;59.274;18.450;2023-10-09T04:04:00;3.50;99.90
14283;DHT22;72649;59.274;18.450;2023-10-09T04:06:28;3.50;99.90
14283;DHT22;72649;59.274;18.450;2023-10-09T04:09:04;3.50;99.90
14283;DHT22;72649;59.274;18.450;2023-10-09T04:11:51;3.50;99.90
14283;DHT22;72649;59.274;18.450;2023-10-09T04:14:44;3.60;99.90
14283;DHT22;72649;59.274;18.450;2023-10-09T04:17:22;3.60;99.90
14283;DHT22;72649;59.274;18.450;2023-10-09T04:19:49;3.60;99.90
14283;DHT22;72649;59.274;18.450;2023-10-09T04:22:40;3.50;99.90
14283;DHT22;72649;59.274;18.450;2023-10-09T04:25:20;3.50;99.90
14283;DHT22;72649;59.274;18.450;2023-10-09T04:28:05;3.50;99.90
14283;DHT22;72649;59.274;18.450;2023-10-09T04:30:48;3.50;99.90
14283;DHT22;72649;59.274;18.450;2023-10-09T04:33:22;3.50;99.90
14283;DHT22;72649;59.274;18.450;2023-10-09T04:36:04;3.50;99.90
14283;DHT22;72649;59.274;18.450;2023-10-09T04:38:53;3.40;99.90
14283;DHT22;72649;59.274;18.450;2023-10-09T04:41:33;3.40;99.90
14283;DHT22;72649;59.274;18.450;2023-10-09T04:44:20;3.40;99.90
14283;DHT22;72649;59.274;18.450;2023-10-09T04:46:51;3.40;99.90
14283;DHT22;72649;59.274;18.450;2023-10-09T04:49:41;3.30;99.90
14283;DHT22;72649;59.274;18.450;2023-10-09T04:52:18;3.30;99.90
14283;DHT22;72649;59.274;18.450;2023-10-09T04:54:58;3.30;99.90
14283;DHT22;72649;59.274;18.450;2023-10-09T05:00:05;3.30;99.90
14283;DHT22;72649;59.274;18.450;2023-10-09T05:05:38;3.40;99.90
14283;DHT22;72649;59.274;18.450;2023-10-09T05:08:11;3.40;99.90
14283;DHT22;72649;59.274;18.450;2023-10-09T05:10:58;3.40;99.90
14283;DHT22;72649;59.274;18.450;2023-10-09T05:13:33;3.40;99.90
14283;DHT22;72649;59.274;18.450;2023-10-09T05:16:18;3.30;99.90
14283;DHT22;72649;59.274;18.450;2023-10-09T05:18:46;3.30;99.90
14283;DHT22;72649;59.274;18.450;2023-10-09T05:21:24;3.30;99.90
14283;DHT22;72649;59.274;18.450;2023-10-09T05:23:58;3.30;99.90
14283;DHT22;72649;59.274;18.450;2023-10-09T05:26:49;3.30;99.90
14283;DHT22;72649;59.274;18.450;2023-10-09T05:29:18;3.30;99.90
14283;DHT22;72649;59.274;18.450;2023-10-09T05:32:04;3.30;99.90
14283;DHT22;72649;59.274;18.450;2023-10-09T05:34:41;3.30;99.90
14283;DHT22;72649;59.274;18.450;2023-10-09T05:37:32;3.20;99.90
14283;DHT22;72649;59.274;18.450;2023-10-09T05:40:03;3.20;99.90
14283;DHT22;72649;59.274;18.450;2023-10-09T05:42:34;3.20;99.90
14283;DHT22;72649;59.274;18.450;2023-10-09T05:45:11;3.20;99.90
14283;DHT22;72649;59.274;18.450;2023-10-09T05:47:53;3.10;99.90
14283;DHT22;72649;59.274;18.450;2023-10-09T05:50:22;3.10;99.90
14283;DHT22;72649;59.274;18.450;2023-10-09T05:52:54;3.20;99.90
14283;DHT22;72649;59.274;18.450;2023-10-09T05:55:25;3.20;99.90
14283;DHT22;72649;59.274;18.450;2023-10-09T05:57:55;3.20;99.90
14283;DHT22;72649;59.274;18.450;2023-10-09T06:00:41;3.20;99.90
14283;DHT22;72649;59.274;18.450;2023-10-09T06:03:43;3.20;99.90
14283;DHT22;72649;59.274;18.450;2023-10-09T06:06:21;3.20;99.90
14283;DHT22;72649;59.274;18.450;2023-10-09T06:09:04;3.30;99.90
14283;DHT22;72649;59.274;18.450;2023-10-09T06:11:45;3.30;99.90
14283;DHT22;72649;59.274;18.450;2023-10-09T06:14:17;3.40;99.90
14283;DHT22;72649;59.274;18.450;2023-10-09T06:16:58;3.40;99.90
14283;DHT22;72649;59.274;18.450;2023-10-09T06:19:28;3.40;99.90
14283;DHT22;72649;59.274;18.450;2023-10-09T06:21:56;3.50;99.90
14283;DHT22;72649;59.274;18.450;2023-10-09T06:24:26;3.60;99.90
14283;DHT22;72649;59.274;18.450;2023-10-09T06:27:00;3.60;99.90
14283;DHT22;72649;59.274;18.450;2023-10-09T06:29:30;3.70;99.90
14283;DHT22;72649;59.274;18.450;2023-10-09T06:32:07;3.70;99.90
14283;DHT22;72649;59.274;18.450;2023-10-09T06:34:56;3.80;99.90
14283;DHT22;72649;59.274;18.450;2023-10-09T06:37:46;3.80;99.90
14283;DHT22;72649;59.274;18.450;2023-10-09T06:43:04;4.00;99.90
14283;DHT22;72649;59.274;18.450;2023-10-09T06:45:44;4.10;99.90
14283;DHT22;72649;59.274;18.450;2023-10-09T06:48:12;4.20;99.90
14283;DHT22;72649;59.274;18.450;2023-10-09T06:51:02;4.20;99.90
14283;DHT22;72649;59.274;18.450;2023-10-09T06:53:53;4.30;99.90
14283;DHT22;72649;59.274;18.450;2023-10-09T06:56:26;4.40;99.90
14283;DHT22;72649;59.274;18.450;2023-10-09T06:59:01;4.50;99.90
14283;DHT22;72649;59.274;18.450;2023-10-09T07:01:41;4.50;99.90
14283;DHT22;72649;59.274;18.450;2023-10-09T07:04:13;4.60;99.90
14283;DHT22;72649;59.274;18.450;2023-10-09T07:06:48;4.70;99.90
14283;DHT22;72649;59.274;18.450;2023-10-09T07:09:17;4.70;99.90
14283;DHT22;72649;59.274;18.450;2023-10-09T07:11:49;4.80;99.90
14283;DHT22;72649;59.274;18.450;2023-10-09T07:14:20;4.90;99.90
14283;DHT22;72649;59.274;18.450;2023-10-09T07:17:01;5.00;99.90
14283;DHT22;72649;59.274;18.450;2023-10-09T07:19:28;5.10;99.90
14283;DHT22;72649;59.274;18.450;2023-10-09T07:22:03;5.10;99.90
14283;DHT22;72649;59.274;18.450;2023-10-09T07:24:30;5.20;99.90
14283;DHT22;72649;59.274;18.450;2023-10-09T07:27:19;5.30;99.90
14283;DHT22;72649;59.274;18.450;2023-10-09T07:30:07;5.40;99.90
14283;DHT22;72649;59.274;18.450;2023-10-09T07:33:01;5.40;99.90
14283;DHT22;72649;59.274;18.450;2023-10-09T07:35:38;5.60;99.90
14283;DHT22;72649;59.274;18.450;2023-10-09T07:38:10;5.60;99.90
14283;DHT22;72649;59.274;18.450;2023-10-09T07:40:38;5.70;99.90
14283;DHT22;72649;59.274;18.450;2023-10-09T07:43:28;5.70;99.90
14283;DHT22;72649;59.274;18.450;2023-10-09T07:46:14;5.80;99.90
14283;DHT22;72649;59.274;18.450;2023-10-09T07:49:03;5.80;99.90
14283;DHT22;72649;59.274;18.450;2023-10-09T07:51:40;5.90;99.90
14283;DHT22;72649;59.274;18.450;2023-10-09T07:54:11;6.00;99.90
14283;DHT22;72649;59.274;18.450;2023-10-09T07:56:43;6.10;99.90
14283;DHT22;72649;59.274;18.450;2023-10-09T07:59:13;6.20;99.90
14283;DHT22;72649;59.274;18.450;2023-10-09T08:01:45;6.20;99.90
14283;DHT22;72649;59.274;18.450;2023-10-09T08:04:22;6.10;99.90
14283;DHT22;72649;59.274;18.450;2023-10-09T08:07:07;6.20;99.90
14283;DHT22;72649;59.274;18.450;2023-10-09T08:09:55;6.20;99.90
14283;DHT22;72649;59.274;18.450;2023-10-09T08:12:41;6.30;99.90
14283;DHT22;72649;59.274;18.450;2023-10-09T08:15:11;6.40;99.90
14283;DHT22;72649;59.274;18.450;2023-10-09T08:20:24;6.60;99.90
14283;DHT22;72649;59.274;18.450;2023-10-09T08:22:55;6.70;99.90
14283;DHT22;72649;59.274;18.450;2023-10-09T08:25:24;6.80;99.90
14283;DHT22;72649;59.274;18.450;2023-10-09T08:28:00;6.90;99.90
14283;DHT22;72649;59.274;18.450;2023-10-09T08:30:46;7.00;99.90
14283;DHT22;72649;59.274;18.450;2023-10-09T08:33:17;7.00;99.90
14283;DHT22;72649;59.274;18.450;2023-10-09T08:35:57;7.20;99.90
14283;DHT22;72649;59.274;18.450;2023-10-09T08:38:34;7.20;99.90
14283;DHT22;72649;59.274;18.450;2023-10-09T08:41:12;7.30;99.90
14283;DHT22;72649;59.274;18.450;2023-10-09T08:43:50;7.40;99.90
14283;DHT22;72649;59.274;18.450;2023-10-09T08:48:50;7.70;99.90
14283;DHT22;72649;59.274;18.450;2023-10-09T08:51:17;7.70;99.90
14283;DHT22;72649;59.274;18.450;2023-10-09T08:53:45;7.60;99.90
14283;DHT22;72649;59.274;18.450;2023-10-09T08:56:14;7.60;99.90
14283;DHT22;72649;59.274;18.450;2023-10-09T08:58:58;7.70;99.90
14283;DHT22;72649;59.274;18.450;2023-10-09T09:01:29;7.80;99.90
14283;DHT22;72649;59.274;18.450;2023-10-09T09:03:59;7.90;99.90
14283;DHT22;72649;59.274;18.450;2023-10-09T09:06:39;8.00;99.90
14283;DHT22;72649;59.274;18.450;2023-10-09T09:09:12;8.00;99.90
14283;DHT22;72649;59.274;18.450;2023-10-09T09:11:42;8.00;99.90
14283;DHT22;72649;59.274;18.450;2023-10-09T09:14:15;8.00;99.90
14283;DHT22;72649;59.274;18.450;2023-10-09T09:16:45;8.10;99.90
14283;DHT22;72649;59.274;18.450;2023-10-09T09:19:15;8.10;99.90
14283;DHT22;72649;59.274;18.450;2023-10-09T09:21:50;8.10;99.90
14283;DHT22;72649;59.274;18.450;2023-10-09T09:24:21;8.20;99.90
14283;DHT22;72649;59.274;18.450;2023-10-09T09:26:49;8.20;99.90
14283;DHT22;72649;59.274;18.450;2023-10-09T09:29:39;8.20;99.90
14283;DHT22;72649;59.274;18.450;2023-10-09T09:32:11;8.20;99.90
14283;DHT22;72649;59.274;18.450;2023-10-09T09:34:52;8.30;99.90
14283;DHT22;72649;59.274;18.450;2023-10-09T09:37:29;8.30;99.90
14283;DHT22;72649;59.274;18.450;2023-10-09T09:39:59;8.30;99.90
14283;DHT22;72649;59.274;18.450;2023-10-09T09:42:43;8.30;99.90
14283;DHT22;72649;59.274;18.450;2023-10-09T09:45:15;8.40;99.90
14283;DHT22;72649;59.274;18.450;2023-10-09T09:47:44;8.50;99.90
14283;DHT22;72649;59.274;18.450;2023-10-09T09:50:19;8.60;99.90
14283;DHT22;72649;59.274;18.450;2023-10-09T09:52:55;8.60;99.90
14283;DHT22;72649;59.274;18.450;2023-10-09T09:55:34;8.70;99.90
14283;DHT22;72649;59.274;18.450;2023-10-09T09:58:13;8.80;99.90
14283;DHT22;72649;59.274;18.450;2023-10-09T10:00:45;8.90;99.90
14283;DHT22;72649;59.274;18.450;2023-10-09T10:03:27;9.10;99.90
14283;DHT22;72649;59.274;18.450;2023-10-09T10:05:57;9.30;99.90
14283;DHT22;72649;59.274;18.450;2023-10-09T10:08:25;9.60;99.90
14283;DHT22;72649;59.274;18.450;2023-10-09T10:10:59;9.60;99.90
14283;DHT22;72649;59.274;18.450;2023-10-09T10:16:09;9.80;99.90
14283;DHT22;72649;59.274;18.450;2023-10-09T10:18:59;9.90;99.90
14283;DHT22;72649;59.274;18.450;2023-10-09T10:21:34;10.30;99.90
14283;DHT22;72649;59.274;18.450;2023-10-09T10:27:16;10.70;99.90
14283;DHT22;72649;59.274;18.450;2023-10-09T10:33:00;10.90;99.90
14283;DHT22;72649;59.274;18.450;2023-10-09T10:35:36;11.10;99.90
14283;DHT22;72649;59.274;18.450;2023-10-09T10:38:31;11.20;99.90
14283;DHT22;72649;59.274;18.450;2023-10-09T10:41:13;10.90;99.90
14283;DHT22;72649;59.274;18.450;2023-10-09T10:43:46;10.80;99.90
14283;DHT22;72649;59.274;18.450;2023-10-09T10:46:14;10.60;99.90
14283;DHT22;72649;59.274;18.450;2023-10-09T10:49:04;10.80;99.90
14283;DHT22;72649;59.274;18.450;2023-10-09T10:52:00;10.80;99.90
14283;DHT22;72649;59.274;18.450;2023-10-09T10:54:45;10.70;99.90
14283;DHT22;72649;59.274;18.450;2023-10-09T10:57:20;10.80;99.90
14283;DHT22;72649;59.274;18.450;2023-10-09T10:59:57;10.90;99.90
14283;DHT22;72649;59.274;18.450;2023-10-09T11:02:43;10.80;99.90
14283;DHT22;72649;59.274;18.450;2023-10-09T11:05:10;11.00;99.90
14283;DHT22;72649;59.274;18.450;2023-10-09T11:07:57;11.30;99.90
14283;DHT22;72649;59.274;18.450;2023-10-09T11:10:24;11.40;99.90
14283;DHT22;72649;59.274;18.450;2023-10-09T11:12:56;11.70;99.90
14283;DHT22;72649;59.274;18.450;2023-10-09T11:15:36;11.50;99.90
14283;DHT22;72649;59.274;18.450;2023-10-09T11:18:41;11.90;99.90
14283;DHT22;72649;59.274;18.450;2023-10-09T11:21:18;12.00;99.90
14283;DHT22;72649;59.274;18.450;2023-10-09T11:23:45;11.90;99.90
14283;DHT22;72649;59.274;18.450;2023-10-09T11:26:18;12.00;99.90
14283;DHT22;72649;59.274;18.450;2023-10-09T11:29:14;12.00;99.90
14283;DHT22;72649;59.274;18.450;2023-10-09T11:34:24;11.60;99.90
14283;DHT22;72649;59.274;18.450;2023-10-09T11:39:38;12.00;99.90
14283;DHT22;72649;59.274;18.450;2023-10-09T11:42:24;12.40;99.90
14283;DHT22;72649;59.274;18.450;2023-10-09T11:45:20;12.60;99.90
14283;DHT22;72649;59.274;18.450;2023-10-09T11:47:48;12.80;99.90
14283;DHT22;72649;59.274;18.450;2023-10-09T11:50:44;12.60;99.90
14283;DHT22;72649;59.274;18.450;2023-10-09T11:53:19;12.80;99.90
14283;DHT22;72649;59.274;18.450;2023-10-09T11:55:50;12.50;99.90
14283;DHT22;72649;59.274;18.450;2023-10-09T11:58:18;12.30;99.90
14283;DHT22;72649;59.274;18.450;2023-10-09T12:00:55;12.40;99.90
14283;DHT22;72649;59.274;18.450;2023-10-09T12:03:28;11.90;99.90
14283;DHT22;72649;59.274;18.450;2023-10-09T12:06:01;12.00;99.90
14283;DHT22;72649;59.274;18.450;2023-10-09T12:08:39;12.20;99.90
14283;DHT22;72649;59.274;18.450;2023-10-09T12:11:09;12.30;99.90
14283;DHT22;72649;59.274;18.450;2023-10-09T12:13:38;11.90;99.90
14283;DHT22;72649;59.274;18.450;2023-10-09T12:16:05;11.90;99.90
14283;DHT22;72649;59.274;18.450;2023-10-09T12:18:42;11.60;99.90
14283;DHT22;72649;59.274;18.450;2023-10-09T12:21:11;11.30;99.90
14283;DHT22;72649;59.274;18.450;2023-10-09T12:23:42;11.40;99.90
14283;DHT22;72649;59.274;18.450;2023-10-09T12:26:14;11.20;99.90
14283;DHT22;72649;59.274;18.450;2023-10-09T12:28:42;11.20;99.90
14283;DHT22;72649;59.274;18.450;2023-10-09T12:31:13;11.20;99.90
14283;DHT22;72649;59.274;18.450;2023-10-09T12:33:47;11.20;99.90
14283;DHT22;72649;59.274;18.450;2023-10-09T12:36:14;11.00;99.90
14283;DHT22;72649;59.274;18.450;2023-10-09T12:38:47;11.00;99.90
14283;DHT22;72649;59.274;18.450;2023-10-09T12:41:20;10.90;99.90
14283;DHT22;72649;59.274;18.450;2023-10-09T12:43:54;10.60;99.90
14283;DHT22;72649;59.274;18.450;2023-10-09T12:46:22;10.60;99.90
14283;DHT22;72649;59.274;18.450;2023-10-09T12:48:59;10.60;99.90
14283;DHT22;72649;59.274;18.450;2023-10-09T12:51:28;10.70;99.90
14283;DHT22;72649;59.274;18.450;2023-10-09T12:53:57;10.80;99.90
14283;DHT22;72649;59.274;18.450;2023-10-09T12:56:25;10.80;99.90
14283;DHT22;72649;59.274;18.450;2023-10-09T12:59:05;10.80;99.90
14283;DHT22;72649;59.274;18.450;2023-10-09T13:01:34;10.70;99.90
14283;DHT22;72649;59.274;18.450;2023-10-09T13:04:14;10.70;99.90
14283;DHT22;72649;59.274;18.450;2023-10-09T13:06:45;10.80;99.90
14283;DHT22;72649;59.274;18.450;2023-10-09T13:09:16;10.80;99.90
14283;DHT22;72649;59.274;18.450;2023-10-09T13:12:03;10.80;99.90
14283;DHT22;72649;59.274;18.450;2023-10-09T13:14:32;10.80;99.90
14283;DHT22;72649;59.274;18.450;2023-10-09T13:17:01;10.90;99.90
14283;DHT22;72649;59.274;18.450;2023-10-09T13:19:36;10.90;99.90
14283;DHT22;72649;59.274;18.450;2023-10-09T13:22:03;11.00;99.90
14283;DHT22;72649;59.274;18.450;2023-10-09T13:24:40;10.90;99.90
14283;DHT22;72649;59.274;18.450;2023-10-09T13:27:07;10.90;99.90
14283;DHT22;72649;59.274;18.450;2023-10-09T13:29:39;10.90;99.90
14283;DHT22;72649;59.274;18.450;2023-10-09T13:32:07;11.00;99.90
14283;DHT22;72649;59.274;18.450;2023-10-09T13:34:41;11.10;99.90
14283;DHT22;72649;59.274;18.450;2023-10-09T13:37:17;11.00;99.90
14283;DHT22;72649;59.274;18.450;2023-10-09T13:39:48;10.90;99.90
14283;DHT22;72649;59.274;18.450;2023-10-09T13:42:23;10.80;99.90
14283;DHT22;72649;59.274;18.450;2023-10-09T13:44:56;10.50;99.90
14283;DHT22;72649;59.274;18.450;2023-10-09T13:47:23;10.40;99.90
14283;DHT22;72649;59.274;18.450;2023-10-09T13:49:58;10.40;99.90
14283;DHT22;72649;59.274;18.450;2023-10-09T13:52:26;10.10;99.90
14283;DHT22;72649;59.274;18.450;2023-10-09T13:54:53;10.10;99.90
14283;DHT22;72649;59.274;18.450;2023-10-09T13:57:21;10.10;99.90
14283;DHT22;72649;59.274;18.450;2023-10-09T13:59:49;10.10;99.90
14283;DHT22;72649;59.274;18.450;2023-10-09T14:02:19;10.10;99.90
14283;DHT22;72649;59.274;18.450;2023-10-09T14:04:48;10.10;99.90
14283;DHT22;72649;59.274;18.450;2023-10-09T14:07:15;10.10;99.90
14283;DHT22;72649;59.274;18.450;2023-10-09T14:09:47;10.20;99.90
14283;DHT22;72649;59.274;18.450;2023-10-09T14:12:34;10.10;99.90
14283;DHT22;72649;59.274;18.450;2023-10-09T14:15:06;10.10;99.90
14283;DHT22;72649;59.274;18.450;2023-10-09T14:17:38;10.10;99.90
14283;DHT22;72649;59.274;18.450;2023-10-09T14:20:09;10.10;99.90
14283;DHT22;72649;59.274;18.450;2023-10-09T14:22:55;10.10;99.90
14283;DHT22;72649;59.274;18.450;2023-10-09T14:25:22;10.10;99.90
14283;DHT22;72649;59.274;18.450;2023-10-09T14:27:50;10.00;99.90
14283;DHT22;72649;59.274;18.450;2023-10-09T14:30:20;10.10;99.90
14283;DHT22;72649;59.274;18.450;2023-10-09T14:32:58;10.10;99.90
14283;DHT22;72649;59.274;18.450;2023-10-09T14:35:28;10.10;99.90
14283;DHT22;72649;59.274;18.450;2023-10-09T14:37:58;10.10;99.90
14283;DHT22;72649;59.274;18.450;2023-10-09T14:40:28;10.10;99.90
14283;DHT22;72649;59.274;18.450;2023-10-09T14:43:01;10.00;99.90
14283;DHT22;72649;59.274;18.450;2023-10-09T14:45:30;10.00;99.90
14283;DHT22;72649;59.274;18.450;2023-10-09T14:47:57;10.00;99.90
14283;DHT22;72649;59.274;18.450;2023-10-09T14:50:27;9.90;99.90
14283;DHT22;72649;59.274;18.450;2023-10-09T14:52:54;9.90;99.90
14283;DHT22;72649;59.274;18.450;2023-10-09T14:55:20;9.80;99.90
14283;DHT22;72649;59.274;18.450;2023-10-09T14:57:51;9.70;99.90
14283;DHT22;72649;59.274;18.450;2023-10-09T15:00:19;9.70;99.90
14283;DHT22;72649;59.274;18.450;2023-10-09T15:02:51;9.60;99.90
14283;DHT22;72649;59.274;18.450;2023-10-09T15:05:19;9.60;99.90
14283;DHT22;72649;59.274;18.450;2023-10-09T15:07:49;9.50;99.90
14283;DHT22;72649;59.274;18.450;2023-10-09T15:10:17;9.50;99.90
14283;DHT22;72649;59.274;18.450;2023-10-09T15:12:45;9.40;99.90
14283;DHT22;72649;59.274;18.450;2023-10-09T15:15:15;9.40;99.90
14283;DHT22;72649;59.274;18.450;2023-10-09T15:17:44;9.40;99.90
14283;DHT22;72649;59.274;18.450;2023-10-09T15:20:13;9.40;99.90
14283;DHT22;72649;59.274;18.450;2023-10-09T15:22:44;9.40;99.90
14283;DHT22;72649;59.274;18.450;2023-10-09T15:25:11;9.40;99.90
14283;DHT22;72649;59.274;18.450;2023-10-09T15:27:45;9.30;99.90
14283;DHT22;72649;59.274;18.450;2023-10-09T15:30:12;9.20;99.90
14283;DHT22;72649;59.274;18.450;2023-10-09T15:32:44;9.20;99.90
14283;DHT22;72649;59.274;18.450;2023-10-09T15:35:11;9.20;99.90
14283;DHT22;72649;59.274;18.450;2023-10-09T15:37:42;9.20;99.90
14283;DHT22;72649;59.274;18.450;2023-10-09T15:40:09;9.20;99.90
14283;DHT22;72649;59.274;18.450;2023-10-09T15:42:45;9.10;99.90
14283;DHT22;72649;59.274;18.450;2023-10-09T15:45:22;9.00;99.90
14283;DHT22;72649;59.274;18.450;2023-10-09T15:47:51;9.00;99.90
14283;DHT22;72649;59.274;18.450;2023-10-09T15:50:19;8.80;99.90
14283;DHT22;72649;59.274;18.450;2023-10-09T15:52:46;8.70;99.90
14283;DHT22;72649;59.274;18.450;2023-10-09T15:55:16;8.60;99.90
14283;DHT22;72649;59.274;18.450;2023-10-09T15:57:47;8.50;99.90
14283;DHT22;72649;59.274;18.450;2023-10-09T16:00:25;8.40;99.90
14283;DHT22;72649;59.274;18.450;2023-10-09T16:02:56;8.20;99.90
14283;DHT22;72649;59.274;18.450;2023-10-09T16:05:23;8.20;99.90
14283;DHT22;72649;59.274;18.450;2023-10-09T16:07:53;8.10;99.90
14283;DHT22;72649;59.274;18.450;2023-10-09T16:10:21;8.10;99.90
14283;DHT22;72649;59.274;18.450;2023-10-09T16:12:48;8.00;99.90
14283;DHT22;72649;59.274;18.450;2023-10-09T16:15:18;8.00;99.90
14283;DHT22;72649;59.274;18.450;2023-10-09T16:17:48;7.90;99.90
14283;DHT22;72649;59.274;18.450;2023-10-09T16:20:26;7.90;99.90
14283;DHT22;72649;59.274;18.450;2023-10-09T16:22:53;7.80;99.90
14283;DHT22;72649;59.274;18.450;2023-10-09T16:25:20;7.80;99.90
14283;DHT22;72649;59.274;18.450;2023-10-09T16:27:50;7.80;99.90
14283;DHT22;72649;59.274;18.450;2023-10-09T16:30:18;7.70;99.90
14283;DHT22;72649;59.274;18.450;2023-10-09T16:32:50;7.50;99.90
14283;DHT22;72649;59.274;18.450;2023-10-09T16:35:17;7.40;99.90
14283;DHT22;72649;59.274;18.450;2023-10-09T16:37:49;7.40;99.90
14283;DHT22;72649;59.274;18.450;2023-10-09T16:40:16;7.30;99.90
14283;DHT22;72649;59.274;18.450;2023-10-09T16:42:48;7.30;99.90
14283;DHT22;72649;59.274;18.450;2023-10-09T16:45:16;7.20;99.90